Time;durP1;ratioP1;P1;durP2;ratioP2;P2;SDS_P1;SDS_P2;PMS_P1;PMS_P2;Temp;Humidity;BMP_temperature;BMP_pressure;BME280_temperature;BME280_humidity;BME280_pressure;Samples;Min_cycle;Max_cycle;Signal;HPM_P1;HPM_P2
2022/06/06 03:02:38;;;;;;;32.78;16.55;;;14.00;99.90;;;;;;6276522;22;20090;-82
2022/06/06 03:08:57;;;;;;;24.23;13.07;;;14.00;99.90;;;;;;6184041;23;20017;-81
2022/06/06 03:12:04;;;;;;;27.05;12.50;;;13.90;99.90;;;;;;6174259;23;20541;-81
2022/06/06 03:15:01;;;;;;;32.88;15.15;;;13.80;99.90;;;;;;6271889;22;20514;-83
2022/06/06 03:21:02;;;;;;;41.05;17.83;;;13.80;99.90;;;;;;6230215;22;20015;-81
2022/06/06 03:23:39;;;;;;;48.15;17.95;;;13.70;99.90;;;;;;6308614;22;20046;-80
2022/06/06 03:26:12;;;;;;;51.08;20.63;;;13.70;99.90;;;;;;6308546;22;20046;-82
2022/06/06 03:28:53;;;;;;;56.33;21.63;;;13.70;99.90;;;;;;6281042;22;20019;-81
2022/06/06 03:31:37;;;;;;;53.33;20.40;;;13.70;99.90;;;;;;6280872;22;20011;-79
2022/06/06 03:34:27;;;;;;;55.10;21.42;;;13.60;99.90;;;;;;6309219;22;20018;-80
2022/06/06 03:36:59;;;;;;;49.53;20.55;;;13.60;99.90;;;;;;6281859;22;20030;-81
2022/06/06 03:39:52;;;;;;;58.00;21.45;;;13.60;99.90;;;;;;6281362;22;20060;-80
2022/06/06 03:42:44;;;;;;;60.50;21.83;;;13.60;99.90;;;;;;6308672;22;20022;-80
2022/06/06 03:45:26;;;;;;;53.67;21.33;;;13.60;99.90;;;;;;6281294;22;20015;-80
2022/06/06 03:48:08;;;;;;;59.05;21.30;;;13.50;99.90;;;;;;6256612;22;20015;-81
2022/06/06 03:51:18;;;;;;;54.47;19.73;;;13.50;99.90;;;;;;6280889;22;20015;-79
2022/06/06 03:54:01;;;;;;;47.53;18.70;;;13.50;99.90;;;;;;6248213;22;20594;-81
2022/06/06 03:57:10;;;;;;;45.03;17.50;;;13.40;99.90;;;;;;6255217;22;20016;-81
2022/06/06 03:59:39;;;;;;;38.45;14.82;;;13.40;99.90;;;;;;6223063;22;20091;-81
2022/06/06 04:02:07;;;;;;;36.35;16.67;;;13.30;99.90;;;;;;6275411;22;20019;-83
2022/06/06 04:05:12;;;;;;;;;;;;;;;;;;;;;
2022/06/06 04:08:00;;;;;;;29.17;12.05;;;13.30;99.90;;;;;;6243903;23;20016;-79
2022/06/06 04:10:42;;;;;;;32.00;13.63;;;13.20;99.90;;;;;;6244811;23;20361;-81
2022/06/06 04:13:35;;;;;;;31.38;12.45;;;13.20;99.90;;;;;;6247578;22;20016;-80
2022/06/06 04:16:24;;;;;;;31.15;12.60;;;13.20;99.90;;;;;;6219783;23;20047;-80
2022/06/06 04:19:00;;;;;;;27.58;11.95;;;13.20;99.90;;;;;;6245026;23;20440;-80
2022/06/06 04:21:45;;;;;;;23.50;10.93;;;13.20;99.90;;;;;;6220897;23;20382;-81
2022/06/06 04:24:13;;;;;;;22.55;8.23;;;13.20;99.90;;;;;;6244769;23;20091;-80
2022/06/06 04:27:04;;;;;;;30.33;12.10;;;13.20;99.90;;;;;;6246465;23;20008;-80
2022/06/06 04:29:44;;;;;;;32.17;12.07;;;13.20;99.90;;;;;;6244708;23;20016;-78
2022/06/06 04:32:14;;;;;;;30.73;13.20;;;13.20;99.90;;;;;;6244573;23;20016;-81
2022/06/06 04:35:21;;;;;;;44.47;15.90;;;13.30;99.90;;;;;;6219631;23;20022;-79
2022/06/06 04:38:28;;;;;;;40.25;15.07;;;13.20;99.90;;;;;;6244733;23;20015;-79
2022/06/06 04:41:06;;;;;;;45.33;16.60;;;13.20;99.90;;;;;;6246802;22;20342;-81
2022/06/06 04:43:37;;;;;;;36.58;15.55;;;13.20;99.90;;;;;;6219757;23;20035;-81
2022/06/06 04:46:25;;;;;;;45.60;18.52;;;13.20;99.90;;;;;;6219216;23;20020;-80
2022/06/06 04:48:52;;;;;;;38.40;15.20;;;13.20;99.90;;;;;;6246760;22;20012;-81
2022/06/06 04:51:20;;;;;;;44.58;19.80;;;13.20;99.90;;;;;;6246324;23;20018;-81
2022/06/06 04:53:50;;;;;;;41.75;18.25;;;13.10;99.90;;;;;;6245447;23;20485;-81
2022/06/06 04:56:18;;;;;;;43.92;20.90;;;13.10;99.90;;;;;;6245416;23;20339;-82
2022/06/06 04:58:47;;;;;;;41.17;16.73;;;13.10;99.90;;;;;;6246573;22;20437;-80
2022/06/06 05:01:15;;;;;;;44.35;19.27;;;13.10;99.90;;;;;;6244715;23;20019;-81
2022/06/06 05:03:40;;;;;;;46.17;18.17;;;13.10;99.90;;;;;;6219844;23;20016;-80
2022/06/06 05:06:35;;;;;;;43.67;20.05;;;13.10;99.90;;;;;;6219302;23;20026;-82
2022/06/06 05:09:10;;;;;;;42.17;18.52;;;13.10;99.90;;;;;;6244538;23;20338;-79
2022/06/06 05:11:54;;;;;;;46.70;19.35;;;13.10;99.90;;;;;;6219934;23;20016;-82
2022/06/06 05:14:30;;;;;;;42.90;17.92;;;13.20;99.90;;;;;;6247094;23;20020;-82
2022/06/06 05:17:17;;;;;;;35.17;17.08;;;13.20;99.90;;;;;;6246728;23;20019;-81
2022/06/06 05:20:13;;;;;;;35.08;19.55;;;13.20;99.90;;;;;;6221020;23;20016;-81
2022/06/06 05:22:49;;;;;;;;;;;13.20;99.90;;;;;;6246862;23;20016;-80
2022/06/06 05:25:36;;;;;;;34.78;18.60;;;13.20;99.90;;;;;;6248305;22;20010;-81
2022/06/06 05:28:20;;;;;;;38.00;18.20;;;13.20;99.90;;;;;;6248370;22;20016;-80
2022/06/06 05:30:54;;;;;;;30.23;16.45;;;13.20;99.90;;;;;;6246287;23;20338;-81
2022/06/06 05:33:33;;;;;;;25.80;15.40;;;13.10;99.90;;;;;;6246944;23;20334;-79
2022/06/06 05:36:08;;;;;;;26.92;14.80;;;13.20;99.90;;;;;;6221148;23;20091;-81
2022/06/06 05:38:48;;;;;;;34.07;16.13;;;13.20;99.90;;;;;;6220986;23;20086;-81
2022/06/06 05:41:48;;;;;;;28.95;15.65;;;13.10;99.90;;;;;;6221599;23;20027;-79
2022/06/06 05:44:42;;;;;;;26.17;14.27;;;13.10;99.90;;;;;;6248480;22;20023;-77
2022/06/06 05:47:45;;;;;;;25.73;13.18;;;13.10;99.90;;;;;;6246771;23;20008;-79
2022/06/06 05:50:32;;;;;;;27.85;13.32;;;13.20;99.90;;;;;;6241791;23;20051;-80
2022/06/06 05:53:27;;;;;;;24.08;12.50;;;13.20;99.90;;;;;;6246435;23;20095;-80
2022/06/06 05:56:11;;;;;;;23.77;12.48;;;13.20;99.90;;;;;;6248718;22;20019;-84
2022/06/06 05:59:06;;;;;;;22.35;12.40;;;13.30;99.90;;;;;;6247926;23;20012;-79
2022/06/06 06:01:57;;;;;;;20.33;9.80;;;13.30;99.90;;;;;;6245931;23;20033;-79
2022/06/06 06:04:33;;;;;;;16.10;8.70;;;13.30;99.90;;;;;;6247977;22;20004;-80
2022/06/06 06:07:40;;;;;;;15.70;8.05;;;13.30;99.90;;;;;;6246007;23;20012;-81
2022/06/06 06:10:30;;;;;;;16.20;7.90;;;13.30;99.90;;;;;;6221827;23;20020;-79
2022/06/06 06:13:26;;;;;;;15.07;6.55;;;13.30;99.90;;;;;;6245975;23;20026;-79
2022/06/06 06:15:53;;;;;;;16.47;7.23;;;13.30;99.90;;;;;;6220617;23;20012;-78
2022/06/06 06:18:36;;;;;;;19.38;8.20;;;13.20;99.90;;;;;;6221095;23;20008;-79
2022/06/06 06:21:09;;;;;;;13.57;7.57;;;13.30;99.90;;;;;;6245695;23;20453;-80
2022/06/06 06:23:40;;;;;;;14.40;7.95;;;13.30;99.90;;;;;;6247608;23;20091;-81
2022/06/06 06:26:07;;;;;;;14.45;7.70;;;13.30;99.90;;;;;;6221374;23;20016;-79
2022/06/06 06:28:34;;;;;;;12.95;6.47;;;13.30;99.90;;;;;;6247530;23;20051;-79
2022/06/06 06:31:22;;;;;;;18.52;8.43;;;13.40;99.90;;;;;;6246017;23;20016;-79
2022/06/06 06:34:20;;;;;;;15.00;7.55;;;13.50;99.90;;;;;;6245920;23;20024;-78
2022/06/06 06:36:58;;;;;;;17.15;7.78;;;13.60;99.90;;;;;;6235172;22;20389;-79
2022/06/06 06:39:37;;;;;;;12.70;6.22;;;13.60;99.90;;;;;;6245619;23;20519;-78
2022/06/06 06:42:02;;;;;;;15.13;7.20;;;13.80;99.90;;;;;;6245666;23;20012;-78
2022/06/06 06:44:33;;;;;;;11.38;6.55;;;13.80;99.90;;;;;;6245641;23;20016;-80
2022/06/06 06:47:18;;;;;;;14.00;6.20;;;13.90;99.90;;;;;;6247055;23;20016;-79
2022/06/06 06:50:14;;;;;;;9.65;6.10;;;13.90;99.90;;;;;;6245621;23;20074;-79
2022/06/06 06:53:08;;;;;;;10.10;5.00;;;13.90;99.90;;;;;;6233935;23;20438;-79
2022/06/06 06:55:58;;;;;;;6.75;3.63;;;14.00;99.90;;;;;;6220327;23;20012;-80
2022/06/06 06:58:39;;;;;;;5.78;2.80;;;14.00;99.90;;;;;;6245599;23;20066;-79
2022/06/06 07:01:16;;;;;;;7.43;3.53;;;14.00;99.90;;;;;;6220920;23;20066;-77
2022/06/06 07:10:20;;;;;;;6.88;2.55;;;14.10;99.90;;;;;;6270836;22;20016;-79
2022/06/06 07:12:52;;;;;;;5.15;2.45;;;14.10;99.90;;;;;;6245090;23;20450;-78
2022/06/06 07:15:35;;;;;;;6.32;2.95;;;14.10;99.90;;;;;;6245230;23;20012;-78
2022/06/06 07:18:04;;;;;;;6.78;2.40;;;14.00;99.90;;;;;;6245348;23;20342;-78
2022/06/06 07:20:30;;;;;;;8.13;3.40;;;14.00;99.90;;;;;;6245387;23;20038;-80
2022/06/06 07:23:09;;;;;;;6.50;3.42;;;14.00;99.90;;;;;;6245620;23;20026;-80
2022/06/06 07:25:47;;;;;;;7.85;3.58;;;14.00;99.90;;;;;;6245089;23;20446;-79
2022/06/06 07:28:22;;;;;;;6.78;4.00;;;14.00;99.90;;;;;;6246763;22;20019;-80
2022/06/06 07:31:22;;;;;;;9.30;4.47;;;14.00;99.90;;;;;;6247520;22;20310;-77
2022/06/06 07:34:06;;;;;;;11.57;5.13;;;14.10;99.90;;;;;;6246882;22;20047;-76
2022/06/06 07:36:49;;;;;;;12.13;6.35;;;14.20;99.90;;;;;;6246566;23;20091;-80
2022/06/06 07:39:21;;;;;;;13.85;5.20;;;14.30;99.90;;;;;;6220974;23;20019;-78
2022/06/06 07:42:15;;;;;;;10.05;5.40;;;14.40;99.90;;;;;;6246764;23;20066;-77
2022/06/06 07:44:59;;;;;;;10.20;4.72;;;14.60;99.90;;;;;;6222240;23;20020;-81
2022/06/06 07:47:52;;;;;;;9.18;5.13;;;14.80;99.90;;;;;;6245256;23;20095;-80
2022/06/06 07:50:25;;;;;;;12.63;4.18;;;15.10;99.90;;;;;;6245051;23;20015;-77
2022/06/06 07:53:16;;;;;;;8.65;4.28;;;15.10;99.90;;;;;;6244959;23;20016;-78
2022/06/06 07:55:58;;;;;;;11.38;4.38;;;15.10;99.90;;;;;;6244938;23;20016;-78
2022/06/06 07:58:55;;;;;;;15.73;5.10;;;15.20;99.90;;;;;;6246492;22;20526;-79
2022/06/06 08:01:30;;;;;;;6.30;3.25;;;15.40;99.90;;;;;;6244742;23;20009;-79
2022/06/06 08:04:04;;;;;;;9.93;4.20;;;15.60;99.90;;;;;;6244481;23;20008;-81
2022/06/06 08:06:44;;;;;;;7.97;3.60;;;15.50;99.90;;;;;;6246504;23;20319;-78
2022/06/06 08:09:34;;;;;;;5.18;3.00;;;15.40;99.90;;;;;;6247543;22;20009;-78
2022/06/06 08:12:33;;;;;;;6.05;3.20;;;15.50;99.90;;;;;;6246403;23;20098;-80
2022/06/06 08:15:12;;;;;;;10.35;3.60;;;15.50;99.90;;;;;;6247429;23;20087;-82
2022/06/06 08:17:59;;;;;;;9.32;3.22;;;15.50;99.90;;;;;;6245366;23;20069;-79
2022/06/06 08:20:42;;;;;;;10.15;3.13;;;15.50;99.90;;;;;;6244133;23;20012;-83
2022/06/06 08:23:09;;;;;;;8.93;2.70;;;15.50;99.90;;;;;;6244691;23;20016;-81
2022/06/06 08:25:37;;;;;;;4.97;2.53;;;15.50;99.90;;;;;;6244598;23;20098;-81
2022/06/06 08:28:05;;;;;;;4.18;2.20;;;15.50;99.90;;;;;;6244789;23;20012;-78
2022/06/06 08:30:34;;;;;;;5.32;2.20;;;15.50;99.90;;;;;;6244850;23;20016;-79
2022/06/06 08:33:00;;;;;;;4.65;2.00;;;15.60;99.90;;;;;;6246465;22;20020;-79
2022/06/06 08:35:44;;;;;;;4.50;2.00;;;15.70;99.90;;;;;;6244604;23;20423;-79
2022/06/06 08:38:34;;;;;;;8.60;1.90;;;15.80;99.90;;;;;;6245011;23;20007;-80
2022/06/06 08:41:28;;;;;;;7.13;2.53;;;15.90;99.90;;;;;;6247183;22;20057;-78
2022/06/06 08:44:01;;;;;;;4.05;2.30;;;16.00;99.90;;;;;;6244968;23;20023;-81
2022/06/06 08:46:56;;;;;;;7.30;2.28;;;16.20;99.90;;;;;;6244644;23;20044;-81
2022/06/06 08:52:55;;;;;;;4.97;1.75;;;16.50;99.90;;;;;;6246310;23;20167;-83
2022/06/06 08:55:20;;;;;;;6.15;1.70;;;16.50;99.90;;;;;;6246801;22;20036;-80
2022/06/06 08:58:15;;;;;;;6.45;2.13;;;16.60;99.90;;;;;;6244708;23;20338;-82
2022/06/06 09:00:55;;;;;;;7.72;1.75;;;16.70;99.90;;;;;;6219135;23;20012;-79
2022/06/06 09:03:49;;;;;;;6.70;2.22;;;16.80;99.90;;;;;;6244759;23;20016;-81
2022/06/06 09:06:20;;;;;;;6.45;1.83;;;16.80;99.90;;;;;;6244514;23;20134;-81
2022/06/06 09:09:04;;;;;;;7.38;1.88;;;17.00;99.90;;;;;;6244508;23;20016;-81
2022/06/06 09:11:40;;;;;;;8.63;2.20;;;16.90;99.90;;;;;;6244409;23;20058;-84
2022/06/06 09:14:27;;;;;;;7.90;1.90;;;16.90;99.90;;;;;;6244514;23;20008;-81
2022/06/06 09:17:23;;;;;;;7.97;1.95;;;17.00;99.90;;;;;;6244365;23;20012;-80
2022/06/06 09:20:34;;;;;;;5.15;1.70;;;17.30;99.90;;;;;;6244668;23;20016;-82
2022/06/06 09:23:27;;;;;;;6.13;1.70;;;17.50;99.90;;;;;;6228439;23;20024;-81
2022/06/06 09:26:02;;;;;;;5.57;1.90;;;17.40;99.90;;;;;;6244766;23;20023;-82
2022/06/06 09:28:49;;;;;;;;;;;17.30;99.90;;;;;;6247230;22;20341;-81
2022/06/06 09:31:35;;;;;;;6.50;1.80;;;17.20;99.90;;;;;;6270076;22;19965;-81
2022/06/06 09:34:40;;;;;;;4.90;1.50;;;17.20;99.90;;;;;;6247244;22;20035;-81
2022/06/06 09:37:43;;;;;;;3.67;1.40;;;17.20;99.90;;;;;;6244445;23;20012;-79
2022/06/06 09:40:28;;;;;;;8.02;1.45;;;17.00;99.90;;;;;;6218965;23;20016;-80
2022/06/06 09:42:54;;;;;;;4.15;1.23;;;16.80;99.90;;;;;;6245321;23;20059;-81
2022/06/06 09:45:34;;;;;;;4.30;1.40;;;16.80;99.90;;;;;;6220255;23;20020;-81
2022/06/06 09:48:37;;;;;;;5.28;1.20;;;16.80;99.90;;;;;;6246363;22;20016;-81
2022/06/06 09:51:27;;;;;;;4.10;1.25;;;16.90;99.90;;;;;;6244547;23;20076;-79
2022/06/06 10:00:54;;;;;;;5.97;1.30;;;17.30;99.90;;;;;;6270849;22;20020;-82
2022/06/06 10:03:57;;;;;;;5.20;1.40;;;17.50;99.90;;;;;;6250328;22;20081;-81
2022/06/06 10:06:48;;;;;;;3.53;1.10;;;17.40;99.90;;;;;;6251545;22;20007;-81
2022/06/06 10:09:52;;;;;;;5.13;1.10;;;17.30;99.90;;;;;;6207364;22;20021;-80
2022/06/06 10:12:41;;;;;;;4.53;1.30;;;17.30;99.90;;;;;;6251489;22;20015;-78
2022/06/06 10:15:46;;;;;;;7.80;1.25;;;17.50;99.90;;;;;;6251707;22;20014;-82
2022/06/06 10:18:47;;;;;;;3.83;1.05;;;17.50;99.90;;;;;;6278453;22;20090;-81
2022/06/06 10:21:15;;;;;;;7.35;1.10;;;17.80;99.90;;;;;;6251032;22;20029;-81
2022/06/06 10:24:02;;;;;;;4.40;0.90;;;17.80;99.90;;;;;;6251241;22;20015;-82
2022/06/06 10:26:48;;;;;;;3.40;0.80;;;17.40;99.90;;;;;;6225794;22;20015;-81
2022/06/06 10:32:57;;;;;;;3.10;0.85;;;17.10;99.90;;;;;;6276391;22;20449;-79
2022/06/06 10:35:41;;;;;;;3.88;1.00;;;17.30;99.90;;;;;;6251002;22;20083;-79
2022/06/06 10:38:36;;;;;;;5.35;1.50;;;17.50;99.90;;;;;;6250979;22;20505;-82
2022/06/06 10:41:33;;;;;;;6.82;1.90;;;17.60;99.90;;;;;;6250865;22;20011;-81
2022/06/06 10:44:15;;;;;;;5.88;1.75;;;17.70;99.90;;;;;;6250975;22;20434;-81
2022/06/06 10:46:52;;;;;;;7.18;2.22;;;17.60;99.90;;;;;;6250994;22;20015;-80
2022/06/06 10:49:34;;;;;;;4.43;1.60;;;17.40;99.90;;;;;;6250907;22;20428;-81
2022/06/06 10:52:39;;;;;;;3.75;1.55;;;17.20;99.90;;;;;;6250881;22;20023;-83
2022/06/06 10:55:33;;;;;;;5.78;1.50;;;17.00;99.90;;;;;;6225430;22;20141;-81
2022/06/06 10:58:20;;;;;;;3.38;1.60;;;16.90;99.90;;;;;;6278525;22;20007;-81
2022/06/06 11:01:13;;;;;;;8.82;2.20;;;16.80;99.90;;;;;;6250452;22;20007;-80
2022/06/06 11:04:01;;;;;;;5.40;2.42;;;16.80;99.90;;;;;;6250927;22;20019;-81
2022/06/06 11:06:57;;;;;;;8.40;3.10;;;16.40;99.90;;;;;;6250890;22;20016;-83
2022/06/06 11:09:56;;;;;;;6.43;3.03;;;16.00;99.90;;;;;;6250761;22;20051;-81
2022/06/06 11:12:33;;;;;;;8.57;3.20;;;15.80;99.90;;;;;;6250087;22;20023;-80
2022/06/06 11:15:02;;;;;;;5.90;2.33;;;15.60;99.90;;;;;;6249904;22;20012;-81
2022/06/06 11:18:03;;;;;;;3.15;1.90;;;15.50;99.90;;;;;;6249758;22;20376;-84
2022/06/06 11:21:11;;;;;;;5.60;2.63;;;15.60;99.90;;;;;;6251150;22;20029;-80
2022/06/06 11:24:18;;;;;;;5.57;2.10;;;15.70;99.90;;;;;;6251005;22;20022;-81
2022/06/06 11:26:50;;;;;;;11.13;3.05;;;16.00;99.90;;;;;;6250306;22;20020;-81
2022/06/06 11:29:50;;;;;;;5.22;2.70;;;16.10;99.90;;;;;;6225611;22;20012;-82
2022/06/06 11:32:54;;;;;;;7.78;2.67;;;16.20;99.90;;;;;;6250163;22;20018;-78
2022/06/06 11:35:46;;;;;;;5.97;2.53;;;16.10;99.90;;;;;;6225461;22;20011;-82
2022/06/06 11:38:35;;;;;;;5.82;1.95;;;16.10;99.90;;;;;;6224988;22;20434;-80
2022/06/06 11:41:25;;;;;;;4.00;2.15;;;16.10;99.90;;;;;;6277549;22;20061;-79
2022/06/06 11:44:00;;;;;;;5.82;2.17;;;16.20;99.90;;;;;;6250615;22;20020;-81
2022/06/06 11:47:08;;;;;;;4.82;1.80;;;16.20;99.90;;;;;;6224994;22;20020;-80
2022/06/06 11:50:07;;;;;;;4.30;1.85;;;16.30;99.90;;;;;;6250785;22;20050;-80
2022/06/06 11:52:55;;;;;;;13.68;2.10;;;16.30;99.90;;;;;;6224702;22;20346;-82
2022/06/06 11:55:32;;;;;;;3.13;1.40;;;16.30;99.90;;;;;;6225152;22;20009;-83
2022/06/06 11:58:22;;;;;;;5.72;1.45;;;16.20;99.90;;;;;;6278873;22;20038;-81
2022/06/06 12:01:25;;;;;;;4.18;1.52;;;16.10;99.90;;;;;;6249823;22;20039;-81
2022/06/06 12:03:56;;;;;;;5.30;1.85;;;15.80;99.90;;;;;;6249826;22;20011;-81
2022/06/06 12:06:56;;;;;;;4.25;1.45;;;15.90;99.90;;;;;;6250451;22;20015;-81
2022/06/06 12:09:57;;;;;;;3.97;1.25;;;15.90;99.90;;;;;;6277161;22;20011;-79
2022/06/06 12:12:57;;;;;;;6.63;1.77;;;16.00;99.90;;;;;;6099623;23;20053;-81
2022/06/06 12:16:00;;;;;;;3.33;1.50;;;16.00;99.90;;;;;;6276199;22;20014;-81
2022/06/06 12:18:54;;;;;;;3.58;1.38;;;16.00;99.90;;;;;;6225246;22;20016;-81
2022/06/06 12:22:01;;;;;;;3.70;1.20;;;16.00;99.90;;;;;;6277458;22;20014;-81
2022/06/06 12:24:35;;;;;;;6.55;1.70;;;16.00;99.90;;;;;;6277429;22;20037;-83
2022/06/06 12:27:18;;;;;;;4.80;1.20;;;15.90;99.90;;;;;;6250634;22;20085;-80
2022/06/06 12:30:02;;;;;;;5.07;1.70;;;15.80;99.90;;;;;;6225755;22;20696;-85
2022/06/06 12:33:03;;;;;;;4.70;1.80;;;15.70;99.90;;;;;;6278740;22;20011;-85
2022/06/06 12:35:35;;;;;;;4.97;1.77;;;15.50;99.90;;;;;;6225381;22;20043;-83
2022/06/06 12:38:13;;;;;;;4.95;2.25;;;15.40;99.90;;;;;;6276865;22;20392;-78
2022/06/06 12:41:04;;;;;;;7.30;2.80;;;15.10;99.90;;;;;;6224008;22;20008;-82
2022/06/06 12:43:45;;;;;;;4.28;2.40;;;15.00;99.90;;;;;;6249634;22;20011;-81
2022/06/06 12:46:42;;;;;;;5.03;2.42;;;14.90;99.90;;;;;;6277054;22;20012;-81
2022/06/06 12:49:24;;;;;;;4.57;2.40;;;14.90;99.90;;;;;;6249635;22;20523;-76
2022/06/06 12:52:23;;;;;;;5.05;2.55;;;14.90;99.90;;;;;;6277145;22;20014;-81
2022/06/06 12:58:15;;;;;;;7.13;3.10;;;14.60;99.90;;;;;;6276775;22;20018;-82
2022/06/06 13:03:39;;;;;;;7.65;3.75;;;14.40;99.90;;;;;;6274994;22;20024;-79
2022/06/06 13:06:46;;;;;;;10.05;4.20;;;14.30;99.90;;;;;;6225023;22;20039;-80
2022/06/06 13:09:32;;;;;;;9.43;4.70;;;14.30;99.90;;;;;;6224147;22;20027;-80
2022/06/06 13:12:16;;;;;;;9.82;5.20;;;14.20;99.90;;;;;;6249351;22;20020;-78
2022/06/06 13:15:00;;;;;;;8.15;4.72;;;14.20;99.90;;;;;;6249648;22;20520;-80
2022/06/06 13:17:49;;;;;;;8.43;4.85;;;14.20;99.90;;;;;;6249774;22;20016;-82
2022/06/06 13:20:20;;;;;;;7.50;4.97;;;14.20;99.90;;;;;;6276674;22;20422;-78
2022/06/06 13:22:55;;;;;;;6.88;5.03;;;14.30;99.90;;;;;;6249422;22;20012;-82
2022/06/06 13:25:42;;;;;;;12.38;5.65;;;14.40;99.90;;;;;;6252605;22;20087;-90
2022/06/06 13:28:53;;;;;;;8.05;5.07;;;14.40;99.90;;;;;;6226555;22;20023;-86
2022/06/06 13:31:36;;;;;;;10.82;4.57;;;14.40;99.90;;;;;;6100810;23;20025;-90
2022/06/06 13:34:34;;;;;;;6.68;4.53;;;14.30;99.90;;;;;;6240501;22;20086;-85
2022/06/06 13:37:37;;;;;;;8.20;5.10;;;14.30;99.90;;;;;;6127949;23;20010;-86
2022/06/06 13:40:27;;;;;;;8.23;5.15;;;14.30;99.90;;;;;;6127692;23;20021;-88
2022/06/06 13:42:55;;;;;;;7.70;5.88;;;14.30;99.90;;;;;;6113796;23;20025;-82
2022/06/06 13:45:58;;;;;;;8.15;5.75;;;14.30;99.90;;;;;;6101505;23;20405;-79
2022/06/06 13:48:53;;;;;;;10.93;6.78;;;14.30;99.90;;;;;;6126063;23;20092;-80
2022/06/06 13:51:24;;;;;;;9.75;6.95;;;14.30;99.90;;;;;;6102176;23;20018;-79
2022/06/06 13:54:00;;;;;;;9.45;6.78;;;14.30;99.90;;;;;;6125665;23;20449;-77
2022/06/06 13:56:53;;;;;;;10.18;6.70;;;14.30;99.90;;;;;;6126343;23;20080;-78
2022/06/06 13:59:57;;;;;;;12.18;7.00;;;14.30;99.90;;;;;;6102479;22;20341;-79
2022/06/06 14:02:49;;;;;;;12.45;7.78;;;14.30;99.90;;;;;;6278423;22;20082;-79
2022/06/06 14:05:36;;;;;;;10.23;7.60;;;14.20;99.90;;;;;;6251558;22;20026;-79
2022/06/06 14:08:12;;;;;;;11.90;6.75;;;14.10;99.90;;;;;;6227407;22;20047;-79
2022/06/06 14:10:53;;;;;;;9.43;5.75;;;14.00;99.90;;;;;;6279059;22;20034;-77
2022/06/06 14:13:28;;;;;;;7.28;4.20;;;13.90;99.90;;;;;;6278704;22;20022;-81
2022/06/06 14:15:56;;;;;;;5.82;3.20;;;13.80;99.90;;;;;;6227528;22;20484;-83
2022/06/06 14:18:30;;;;;;;7.70;4.00;;;13.80;99.90;;;;;;6251452;22;20087;-80
2022/06/06 14:20:57;;;;;;;6.17;3.50;;;13.70;99.90;;;;;;6278543;22;20004;-81
2022/06/06 14:23:38;;;;;;;7.55;3.88;;;13.70;99.90;;;;;;6251183;22;20016;-80
2022/06/06 14:26:12;;;;;;;6.85;4.20;;;13.60;99.90;;;;;;6226166;22;20016;-79
2022/06/06 14:29:20;;;;;;;9.35;3.92;;;13.60;99.90;;;;;;6224593;22;20016;-79
2022/06/06 14:32:01;;;;;;;7.78;4.43;;;13.50;99.90;;;;;;6100306;23;20445;-80
2022/06/06 14:35:04;;;;;;;;;;;;;;;;;;;;;
2022/06/06 14:37:34;;;;;;;6.25;3.55;;;13.50;99.90;;;;;;6189736;23;20016;-82
2022/06/06 14:43:07;;;;;;;10.23;5.47;;;13.50;99.90;;;;;;6243182;22;20028;-81
2022/06/06 14:45:36;;;;;;;5.38;2.75;;;13.50;99.90;;;;;;6245673;23;20012;-82
2022/06/06 14:48:22;;;;;;;6.97;3.30;;;13.50;99.90;;;;;;6219824;23;20061;-81
2022/06/06 14:50:58;;;;;;;4.70;2.50;;;13.40;99.90;;;;;;6124894;23;20037;-81
2022/06/06 14:53:49;;;;;;;4.95;2.60;;;13.40;99.90;;;;;;6076281;23;20017;-80
2022/06/06 14:56:45;;;;;;;7.03;4.40;;;13.30;99.90;;;;;;6125235;23;20013;-80
2022/06/06 14:59:14;;;;;;;;;;;13.30;99.90;;;;;;6125586;23;20014;-80
2022/06/06 15:01:41;;;;;;;8.45;4.93;;;13.20;99.90;;;;;;6124673;23;19913;-78
2022/06/06 15:04:25;;;;;;;12.93;7.22;;;13.20;99.90;;;;;;6100316;23;20318;-79
2022/06/06 15:06:55;;;;;;;6.07;4.25;;;13.10;99.90;;;;;;6076307;23;20062;-81
2022/06/06 15:09:49;;;;;;;4.22;2.67;;;13.10;99.90;;;;;;6124987;23;20018;-78
2022/06/06 15:12:24;;;;;;;5.85;3.40;;;13.00;99.90;;;;;;6076109;23;20093;-79
2022/06/06 15:14:58;;;;;;;3.60;2.17;;;13.00;99.90;;;;;;6178858;23;20095;-81
2022/06/06 15:17:25;;;;;;;5.55;2.58;;;13.00;99.90;;;;;;6246899;23;20453;-80
2022/06/06 15:20:01;;;;;;;5.47;2.38;;;12.90;99.90;;;;;;6220399;23;20008;-80
2022/06/06 15:22:30;;;;;;;5.47;2.90;;;12.90;99.90;;;;;;6247231;22;20081;-79
2022/06/06 15:24:56;;;;;;;8.00;3.47;;;12.90;99.90;;;;;;6218877;23;20024;-79
2022/06/06 15:27:59;;;;;;;8.55;3.95;;;12.90;99.90;;;;;;6247081;23;20012;-81
2022/06/06 15:30:53;;;;;;;6.57;3.60;;;12.90;99.90;;;;;;6246806;22;20016;-82
2022/06/06 15:33:53;;;;;;;6.88;2.90;;;12.90;99.90;;;;;;6195493;23;20016;-82
2022/06/06 15:36:42;;;;;;;3.90;2.60;;;13.00;99.90;;;;;;6220659;23;20012;-82
2022/06/06 15:39:39;;;;;;;3.47;1.85;;;12.90;99.90;;;;;;6220573;23;20023;-83
2022/06/06 15:42:23;;;;;;;3.80;2.40;;;12.90;99.90;;;;;;6246538;22;20016;-80
2022/06/06 15:45:12;;;;;;;3.60;2.13;;;12.90;99.90;;;;;;6195250;23;20019;-81
2022/06/06 15:48:04;;;;;;;4.88;2.40;;;12.90;99.90;;;;;;6219667;23;20027;-80
2022/06/06 15:50:41;;;;;;;3.10;1.83;;;13.00;99.90;;;;;;6219831;22;20462;-81
2022/06/06 15:53:10;;;;;;;6.15;2.50;;;13.00;99.90;;;;;;6219645;23;20062;-82
2022/06/06 15:55:41;;;;;;;3.05;1.55;;;13.00;99.90;;;;;;6219641;23;20012;-81
2022/06/06 15:58:42;;;;;;;3.58;1.80;;;13.00;99.90;;;;;;6219546;23;20019;-82
2022/06/06 16:01:18;;;;;;;3.55;2.15;;;13.00;99.90;;;;;;6194500;23;20016;-81
2022/06/06 16:04:00;;;;;;;5.85;3.15;;;13.00;99.90;;;;;;6219756;23;20388;-78
2022/06/06 16:06:32;;;;;;;5.68;3.08;;;13.00;99.90;;;;;;6219641;23;20050;-81
2022/06/06 16:09:23;;;;;;;10.45;5.30;;;13.00;99.90;;;;;;6219146;23;20012;-81
2022/06/06 16:12:14;;;;;;;4.75;2.42;;;12.90;99.90;;;;;;6219009;23;20422;-81
2022/06/06 16:14:59;;;;;;;3.85;2.45;;;12.80;99.90;;;;;;6219682;23;20436;-81
2022/06/06 16:17:36;;;;;;;4.03;2.30;;;12.80;99.90;;;;;;6219658;23;20097;-81
2022/06/06 16:20:18;;;;;;;4.93;2.60;;;12.80;99.90;;;;;;6246543;23;20008;-81
2022/06/06 16:22:54;;;;;;;5.13;2.95;;;12.70;99.90;;;;;;6219485;23;20442;-79
2022/06/06 16:25:27;;;;;;;5.15;2.20;;;12.70;99.90;;;;;;6219744;23;20023;-86
2022/06/06 16:28:24;;;;;;;6.53;3.90;;;12.60;99.90;;;;;;6246579;23;20008;-82
2022/06/06 16:30:54;;;;;;;5.28;2.58;;;12.60;99.90;;;;;;6244608;22;20338;-76
2022/06/06 16:33:27;;;;;;;6.10;3.80;;;12.60;99.90;;;;;;6194663;23;20397;-79
2022/06/06 16:35:58;;;;;;;4.15;2.10;;;12.50;99.90;;;;;;6246581;23;20337;-81
2022/06/06 16:38:35;;;;;;;7.03;3.38;;;12.50;99.90;;;;;;6246102;23;20015;-81
2022/06/06 16:41:13;;;;;;;7.35;3.78;;;12.50;99.90;;;;;;6219185;23;20492;-79
2022/06/06 16:49:47;;;;;;;7.72;3.78;;;12.40;99.90;;;;;;6244222;23;20016;-80
2022/06/06 16:52:37;;;;;;;11.02;5.28;;;12.40;99.90;;;;;;6218753;23;20111;-78
2022/06/06 16:55:18;;;;;;;11.68;5.47;;;12.40;99.90;;;;;;6218922;23;20377;-80
2022/06/06 16:58:05;;;;;;;7.57;3.63;;;12.40;99.90;;;;;;6193903;23;20074;-80
2022/06/06 17:00:52;;;;;;;8.77;3.90;;;12.40;99.90;;;;;;6218747;22;20377;-81
2022/06/06 17:03:32;;;;;;;8.23;3.70;;;12.40;99.90;;;;;;6218820;23;20012;-80
2022/06/06 17:09:41;;;;;;;7.70;4.40;;;12.30;99.90;;;;;;6244118;23;20020;-79
2022/06/06 17:12:30;;;;;;;7.13;3.97;;;12.30;99.90;;;;;;6220215;23;20023;-80
2022/06/06 17:15:18;;;;;;;7.93;3.22;;;12.30;99.90;;;;;;6220799;23;20071;-81
2022/06/06 17:18:08;;;;;;;6.20;3.30;;;12.20;99.90;;;;;;6220670;23;20012;-80
2022/06/06 17:20:40;;;;;;;7.63;3.95;;;12.20;99.90;;;;;;6220018;22;20135;-79
2022/06/06 17:23:05;;;;;;;6.72;3.67;;;12.10;99.90;;;;;;6222002;23;20020;-79
2022/06/06 17:25:44;;;;;;;7.07;3.88;;;12.00;99.90;;;;;;6195438;23;20012;-80
2022/06/06 17:28:32;;;;;;;7.00;3.47;;;12.00;99.90;;;;;;6196079;23;20044;-79
2022/06/06 17:31:13;;;;;;;8.77;3.88;;;12.00;99.90;;;;;;6247960;22;20275;-80
2022/06/06 17:34:06;;;;;;;9.88;4.85;;;12.00;99.90;;;;;;6221357;23;20307;-80
2022/06/06 17:36:59;;;;;;;12.98;4.95;;;12.00;99.90;;;;;;6247891;23;20107;-81
2022/06/06 17:39:36;;;;;;;9.35;4.63;;;12.00;99.90;;;;;;6223122;23;20015;-79
2022/06/06 17:42:08;;;;;;;9.63;4.78;;;12.00;99.90;;;;;;6220624;23;20014;-79
2022/06/06 17:44:40;;;;;;;7.90;4.93;;;12.10;99.90;;;;;;6196108;23;20015;-78
2022/06/06 17:47:14;;;;;;;10.57;5.20;;;12.10;99.90;;;;;;6195965;23;20024;-78
2022/06/06 17:50:10;;;;;;;12.73;5.50;;;12.10;99.90;;;;;;6195486;23;20012;-78
2022/06/06 17:53:09;;;;;;;14.65;5.43;;;12.10;99.90;;;;;;6247180;22;20446;-80
2022/06/06 17:55:54;;;;;;;9.05;4.75;;;12.10;99.90;;;;;;6195781;23;20012;-80
2022/06/06 17:58:57;;;;;;;9.35;4.32;;;12.10;99.90;;;;;;6247241;23;20442;-80
2022/06/06 18:01:23;;;;;;;8.68;4.32;;;12.10;99.90;;;;;;6220334;23;20019;-80